sensor_id;sensor_type;location;lat;lon;timestamp;P1;durP1;ratioP1;P2;durP2;ratioP2
33954;SDS011;20233;50.804;7.126;2022-08-01T00:01:37;1.13;;;0.28;;
33954;SDS011;20233;50.804;7.126;2022-08-01T00:04:03;1.17;;;0.22;;
33954;SDS011;20233;50.804;7.126;2022-08-01T00:06:29;2.58;;;0.20;;
33954;SDS011;20233;50.804;7.126;2022-08-01T00:08:55;2.33;;;0.40;;
33954;SDS011;20233;50.804;7.126;2022-08-01T00:11:20;2.53;;;0.30;;
33954;SDS011;20233;50.804;7.126;2022-08-01T00:13:46;3.00;;;0.38;;
33954;SDS011;20233;50.804;7.126;2022-08-01T00:16:12;1.90;;;0.22;;
33954;SDS011;20233;50.804;7.126;2022-08-01T00:18:37;2.70;;;0.40;;
33954;SDS011;20233;50.804;7.126;2022-08-01T00:21:04;3.28;;;0.30;;
33954;SDS011;20233;50.804;7.126;2022-08-01T00:23:29;1.55;;;0.35;;
33954;SDS011;20233;50.804;7.126;2022-08-01T00:25:55;2.72;;;0.55;;
33954;SDS011;20233;50.804;7.126;2022-08-01T00:28:21;1.88;;;0.45;;
33954;SDS011;20233;50.804;7.126;2022-08-01T00:30:46;3.33;;;0.35;;
33954;SDS011;20233;50.804;7.126;2022-08-01T00:33:12;1.30;;;0.30;;
33954;SDS011;20233;50.804;7.126;2022-08-01T00:35:37;2.50;;;0.40;;
33954;SDS011;20233;50.804;7.126;2022-08-01T00:38:03;1.30;;;0.30;;
33954;SDS011;20233;50.804;7.126;2022-08-01T00:40:28;4.68;;;0.50;;
33954;SDS011;20233;50.804;7.126;2022-08-01T00:42:54;2.90;;;0.40;;
33954;SDS011;20233;50.804;7.126;2022-08-01T00:45:19;2.08;;;0.30;;
33954;SDS011;20233;50.804;7.126;2022-08-01T00:47:45;1.30;;;0.30;;
33954;SDS011;20233;50.804;7.126;2022-08-01T00:50:11;9.40;;;1.38;;
33954;SDS011;20233;50.804;7.126;2022-08-01T00:52:38;2.67;;;0.40;;
33954;SDS011;20233;50.804;7.126;2022-08-01T00:55:05;1.58;;;0.45;;
33954;SDS011;20233;50.804;7.126;2022-08-01T00:57:31;1.90;;;0.60;;
33954;SDS011;20233;50.804;7.126;2022-08-01T00:59:57;1.75;;;0.40;;
33954;SDS011;20233;50.804;7.126;2022-08-01T01:02:23;2.20;;;0.38;;
33954;SDS011;20233;50.804;7.126;2022-08-01T01:04:48;3.03;;;0.60;;
33954;SDS011;20233;50.804;7.126;2022-08-01T01:07:48;2.45;;;0.30;;
33954;SDS011;20233;50.804;7.126;2022-08-01T01:10:17;4.28;;;0.45;;
33954;SDS011;20233;50.804;7.126;2022-08-01T01:15:33;3.80;;;0.40;;
33954;SDS011;20233;50.804;7.126;2022-08-01T01:18:11;1.75;;;0.32;;
33954;SDS011;20233;50.804;7.126;2022-08-01T01:20:46;1.50;;;0.40;;
33954;SDS011;20233;50.804;7.126;2022-08-01T01:26:30;2.20;;;0.50;;
33954;SDS011;20233;50.804;7.126;2022-08-01T01:29:24;3.45;;;0.63;;
33954;SDS011;20233;50.804;7.126;2022-08-01T01:32:07;2.67;;;0.57;;
33954;SDS011;20233;50.804;7.126;2022-08-01T01:34:40;3.97;;;1.30;;
33954;SDS011;20233;50.804;7.126;2022-08-01T01:37:10;2.35;;;0.38;;
33954;SDS011;20233;50.804;7.126;2022-08-01T01:39:40;1.55;;;0.57;;
33954;SDS011;20233;50.804;7.126;2022-08-01T01:42:07;2.30;;;0.77;;
33954;SDS011;20233;50.804;7.126;2022-08-01T01:44:33;2.90;;;1.15;;
33954;SDS011;20233;50.804;7.126;2022-08-01T01:47:01;3.58;;;0.95;;
33954;SDS011;20233;50.804;7.126;2022-08-01T01:49:28;3.35;;;0.73;;
33954;SDS011;20233;50.804;7.126;2022-08-01T01:51:55;2.70;;;1.05;;
33954;SDS011;20233;50.804;7.126;2022-08-01T01:54:22;3.78;;;1.15;;
33954;SDS011;20233;50.804;7.126;2022-08-01T01:56:50;3.45;;;1.15;;
33954;SDS011;20233;50.804;7.126;2022-08-01T01:59:20;1.83;;;1.10;;
33954;SDS011;20233;50.804;7.126;2022-08-01T02:01:49;4.32;;;1.30;;
33954;SDS011;20233;50.804;7.126;2022-08-01T02:04:17;2.40;;;1.23;;
33954;SDS011;20233;50.804;7.126;2022-08-01T02:06:45;2.72;;;1.20;;
33954;SDS011;20233;50.804;7.126;2022-08-01T02:09:13;3.55;;;1.00;;
33954;SDS011;20233;50.804;7.126;2022-08-01T02:11:42;3.67;;;1.52;;
33954;SDS011;20233;50.804;7.126;2022-08-01T02:14:09;5.72;;;0.95;;
33954;SDS011;20233;50.804;7.126;2022-08-01T02:16:36;2.28;;;0.95;;
33954;SDS011;20233;50.804;7.126;2022-08-01T02:19:06;3.63;;;1.05;;
33954;SDS011;20233;50.804;7.126;2022-08-01T02:21:34;3.03;;;1.00;;
33954;SDS011;20233;50.804;7.126;2022-08-01T02:24:08;2.25;;;1.00;;
33954;SDS011;20233;50.804;7.126;2022-08-01T02:26:41;3.72;;;1.02;;
33954;SDS011;20233;50.804;7.126;2022-08-01T02:29:12;2.58;;;1.60;;
33954;SDS011;20233;50.804;7.126;2022-08-01T02:31:43;3.20;;;1.30;;
33954;SDS011;20233;50.804;7.126;2022-08-01T02:34:13;3.13;;;1.20;;
33954;SDS011;20233;50.804;7.126;2022-08-01T02:36:43;3.72;;;1.10;;
33954;SDS011;20233;50.804;7.126;2022-08-01T02:39:11;4.03;;;1.08;;
33954;SDS011;20233;50.804;7.126;2022-08-01T02:41:41;2.55;;;1.00;;
33954;SDS011;20233;50.804;7.126;2022-08-01T02:44:09;4.25;;;1.17;;
33954;SDS011;20233;50.804;7.126;2022-08-01T02:46:39;3.08;;;0.90;;
33954;SDS011;20233;50.804;7.126;2022-08-01T02:49:10;1.98;;;1.10;;
33954;SDS011;20233;50.804;7.126;2022-08-01T02:51:38;4.28;;;1.10;;
33954;SDS011;20233;50.804;7.126;2022-08-01T02:54:07;3.47;;;1.33;;
33954;SDS011;20233;50.804;7.126;2022-08-01T02:56:34;2.33;;;1.33;;
33954;SDS011;20233;50.804;7.126;2022-08-01T02:59:06;5.20;;;1.02;;
33954;SDS011;20233;50.804;7.126;2022-08-01T03:01:36;2.92;;;1.27;;
33954;SDS011;20233;50.804;7.126;2022-08-01T03:04:04;5.63;;;1.33;;
33954;SDS011;20233;50.804;7.126;2022-08-01T03:06:30;3.08;;;1.35;;
33954;SDS011;20233;50.804;7.126;2022-08-01T03:08:57;3.10;;;1.02;;
33954;SDS011;20233;50.804;7.126;2022-08-01T03:11:25;9.40;;;1.65;;
33954;SDS011;20233;50.804;7.126;2022-08-01T03:13:53;3.88;;;1.85;;
33954;SDS011;20233;50.804;7.126;2022-08-01T03:16:20;4.13;;;2.10;;
33954;SDS011;20233;50.804;7.126;2022-08-01T03:18:48;2.85;;;1.60;;
33954;SDS011;20233;50.804;7.126;2022-08-01T03:21:16;4.18;;;1.67;;
33954;SDS011;20233;50.804;7.126;2022-08-01T03:23:44;6.10;;;2.03;;
33954;SDS011;20233;50.804;7.126;2022-08-01T03:26:12;3.63;;;1.70;;
33954;SDS011;20233;50.804;7.126;2022-08-01T03:28:38;3.03;;;1.88;;
33954;SDS011;20233;50.804;7.126;2022-08-01T03:31:06;5.93;;;2.20;;
33954;SDS011;20233;50.804;7.126;2022-08-01T03:33:32;6.20;;;1.73;;
33954;SDS011;20233;50.804;7.126;2022-08-01T03:35:58;3.58;;;1.92;;
33954;SDS011;20233;50.804;7.126;2022-08-01T03:38:26;4.78;;;1.63;;
33954;SDS011;20233;50.804;7.126;2022-08-01T03:40:57;4.15;;;1.27;;
33954;SDS011;20233;50.804;7.126;2022-08-01T03:43:45;5.85;;;1.73;;
33954;SDS011;20233;50.804;7.126;2022-08-01T03:46:20;3.38;;;1.33;;
33954;SDS011;20233;50.804;7.126;2022-08-01T03:48:52;4.50;;;1.60;;
33954;SDS011;20233;50.804;7.126;2022-08-01T03:51:23;4.50;;;2.20;;
33954;SDS011;20233;50.804;7.126;2022-08-01T03:53:50;3.30;;;1.70;;
33954;SDS011;20233;50.804;7.126;2022-08-01T03:56:17;5.10;;;2.50;;
33954;SDS011;20233;50.804;7.126;2022-08-01T03:58:44;4.00;;;2.53;;
33954;SDS011;20233;50.804;7.126;2022-08-01T04:01:11;6.50;;;3.20;;
33954;SDS011;20233;50.804;7.126;2022-08-01T04:03:37;6.75;;;3.38;;
33954;SDS011;20233;50.804;7.126;2022-08-01T04:06:04;7.43;;;3.10;;
33954;SDS011;20233;50.804;7.126;2022-08-01T04:08:39;6.65;;;3.95;;
33954;SDS011;20233;50.804;7.126;2022-08-01T04:11:05;6.93;;;2.90;;
33954;SDS011;20233;50.804;7.126;2022-08-01T04:13:32;4.72;;;2.60;;
33954;SDS011;20233;50.804;7.126;2022-08-01T04:15:58;5.53;;;2.17;;
33954;SDS011;20233;50.804;7.126;2022-08-01T04:18:24;4.43;;;2.42;;
33954;SDS011;20233;50.804;7.126;2022-08-01T04:20:49;7.22;;;2.47;;
33954;SDS011;20233;50.804;7.126;2022-08-01T04:23:15;4.82;;;1.92;;
33954;SDS011;20233;50.804;7.126;2022-08-01T04:25:43;4.88;;;1.75;;
33954;SDS011;20233;50.804;7.126;2022-08-01T04:28:12;6.40;;;1.92;;
33954;SDS011;20233;50.804;7.126;2022-08-01T04:30:41;3.90;;;1.42;;
33954;SDS011;20233;50.804;7.126;2022-08-01T04:33:10;2.42;;;1.48;;
33954;SDS011;20233;50.804;7.126;2022-08-01T04:35:41;2.78;;;1.67;;
33954;SDS011;20233;50.804;7.126;2022-08-01T04:38:10;4.05;;;2.03;;
33954;SDS011;20233;50.804;7.126;2022-08-01T04:40:41;8.38;;;2.65;;
33954;SDS011;20233;50.804;7.126;2022-08-01T04:43:09;4.45;;;1.83;;
33954;SDS011;20233;50.804;7.126;2022-08-01T04:45:35;4.57;;;2.30;;
33954;SDS011;20233;50.804;7.126;2022-08-01T04:48:01;6.72;;;2.13;;
33954;SDS011;20233;50.804;7.126;2022-08-01T04:50:31;3.80;;;1.95;;
33954;SDS011;20233;50.804;7.126;2022-08-01T04:52:57;5.20;;;2.67;;
33954;SDS011;20233;50.804;7.126;2022-08-01T04:55:22;15.38;;;3.00;;
33954;SDS011;20233;50.804;7.126;2022-08-01T04:57:48;10.32;;;2.65;;
33954;SDS011;20233;50.804;7.126;2022-08-01T05:00:14;7.95;;;3.08;;
33954;SDS011;20233;50.804;7.126;2022-08-01T05:02:41;5.43;;;2.25;;
33954;SDS011;20233;50.804;7.126;2022-08-01T05:05:07;5.38;;;2.42;;
33954;SDS011;20233;50.804;7.126;2022-08-01T05:07:35;10.43;;;3.17;;
33954;SDS011;20233;50.804;7.126;2022-08-01T05:10:02;13.15;;;2.88;;
33954;SDS011;20233;50.804;7.126;2022-08-01T05:12:29;8.05;;;2.85;;
33954;SDS011;20233;50.804;7.126;2022-08-01T05:14:56;9.68;;;4.50;;
33954;SDS011;20233;50.804;7.126;2022-08-01T05:17:22;10.23;;;5.50;;
33954;SDS011;20233;50.804;7.126;2022-08-01T05:19:48;12.60;;;5.68;;
33954;SDS011;20233;50.804;7.126;2022-08-01T05:22:13;10.75;;;6.57;;
33954;SDS011;20233;50.804;7.126;2022-08-01T05:24:39;9.93;;;7.10;;
33954;SDS011;20233;50.804;7.126;2022-08-01T05:27:05;13.25;;;7.70;;
33954;SDS011;20233;50.804;7.126;2022-08-01T05:29:32;10.95;;;7.18;;
33954;SDS011;20233;50.804;7.126;2022-08-01T05:31:59;9.25;;;6.85;;
33954;SDS011;20233;50.804;7.126;2022-08-01T05:34:25;11.52;;;7.75;;
33954;SDS011;20233;50.804;7.126;2022-08-01T05:36:51;9.55;;;6.65;;
33954;SDS011;20233;50.804;7.126;2022-08-01T05:39:17;11.77;;;6.68;;
33954;SDS011;20233;50.804;7.126;2022-08-01T05:41:43;11.18;;;6.18;;
33954;SDS011;20233;50.804;7.126;2022-08-01T05:44:08;11.48;;;5.82;;
33954;SDS011;20233;50.804;7.126;2022-08-01T05:46:34;9.25;;;5.93;;
33954;SDS011;20233;50.804;7.126;2022-08-01T05:49:01;10.82;;;7.07;;
33954;SDS011;20233;50.804;7.126;2022-08-01T05:51:28;10.68;;;5.68;;
33954;SDS011;20233;50.804;7.126;2022-08-01T05:53:54;7.55;;;5.32;;
33954;SDS011;20233;50.804;7.126;2022-08-01T05:56:20;11.32;;;6.50;;
33954;SDS011;20233;50.804;7.126;2022-08-01T05:58:46;11.23;;;5.88;;
33954;SDS011;20233;50.804;7.126;2022-08-01T06:01:12;11.75;;;6.05;;
33954;SDS011;20233;50.804;7.126;2022-08-01T06:03:38;7.03;;;5.80;;
33954;SDS011;20233;50.804;7.126;2022-08-01T06:06:04;10.23;;;7.68;;
33954;SDS011;20233;50.804;7.126;2022-08-01T06:08:29;12.02;;;7.03;;
33954;SDS011;20233;50.804;7.126;2022-08-01T06:10:55;12.38;;;7.38;;
33954;SDS011;20233;50.804;7.126;2022-08-01T06:13:21;10.57;;;7.30;;
33954;SDS011;20233;50.804;7.126;2022-08-01T06:15:47;11.60;;;7.25;;
33954;SDS011;20233;50.804;7.126;2022-08-01T06:18:13;8.98;;;6.93;;
33954;SDS011;20233;50.804;7.126;2022-08-01T06:20:39;9.43;;;6.22;;
33954;SDS011;20233;50.804;7.126;2022-08-01T06:23:05;12.55;;;6.90;;
33954;SDS011;20233;50.804;7.126;2022-08-01T06:25:31;9.70;;;5.63;;
33954;SDS011;20233;50.804;7.126;2022-08-01T06:27:58;11.02;;;7.35;;
33954;SDS011;20233;50.804;7.126;2022-08-01T06:30:23;9.38;;;6.78;;
33954;SDS011;20233;50.804;7.126;2022-08-01T06:32:49;11.80;;;6.70;;
33954;SDS011;20233;50.804;7.126;2022-08-01T06:35:15;10.35;;;6.97;;
33954;SDS011;20233;50.804;7.126;2022-08-01T06:37:41;13.45;;;8.13;;
33954;SDS011;20233;50.804;7.126;2022-08-01T06:40:07;15.63;;;9.10;;
33954;SDS011;20233;50.804;7.126;2022-08-01T06:42:35;11.65;;;7.85;;
33954;SDS011;20233;50.804;7.126;2022-08-01T06:45:10;10.45;;;8.82;;
33954;SDS011;20233;50.804;7.126;2022-08-01T06:47:40;11.95;;;7.90;;
33954;SDS011;20233;50.804;7.126;2022-08-01T06:50:09;14.00;;;8.45;;
33954;SDS011;20233;50.804;7.126;2022-08-01T06:52:35;11.48;;;8.38;;
33954;SDS011;20233;50.804;7.126;2022-08-01T06:55:02;11.25;;;7.90;;
33954;SDS011;20233;50.804;7.126;2022-08-01T06:57:28;9.57;;;7.38;;
33954;SDS011;20233;50.804;7.126;2022-08-01T06:59:53;9.48;;;6.78;;
33954;SDS011;20233;50.804;7.126;2022-08-01T07:02:20;9.48;;;6.45;;
33954;SDS011;20233;50.804;7.126;2022-08-01T07:04:46;10.95;;;7.20;;
33954;SDS011;20233;50.804;7.126;2022-08-01T07:07:12;9.80;;;7.10;;
33954;SDS011;20233;50.804;7.126;2022-08-01T07:09:37;9.60;;;6.95;;
33954;SDS011;20233;50.804;7.126;2022-08-01T07:12:06;8.40;;;6.50;;
33954;SDS011;20233;50.804;7.126;2022-08-01T07:14:31;12.02;;;6.07;;
33954;SDS011;20233;50.804;7.126;2022-08-01T07:16:57;8.05;;;6.15;;
33954;SDS011;20233;50.804;7.126;2022-08-01T07:19:23;7.40;;;5.55;;
33954;SDS011;20233;50.804;7.126;2022-08-01T07:21:48;7.47;;;5.78;;
33954;SDS011;20233;50.804;7.126;2022-08-01T07:24:14;10.05;;;6.32;;
33954;SDS011;20233;50.804;7.126;2022-08-01T07:26:44;7.68;;;5.70;;
33954;SDS011;20233;50.804;7.126;2022-08-01T07:29:11;7.68;;;5.60;;
33954;SDS011;20233;50.804;7.126;2022-08-01T07:31:36;8.13;;;4.85;;
33954;SDS011;20233;50.804;7.126;2022-08-01T07:34:02;9.18;;;5.60;;
33954;SDS011;20233;50.804;7.126;2022-08-01T07:36:28;7.95;;;5.07;;
33954;SDS011;20233;50.804;7.126;2022-08-01T07:38:54;9.70;;;6.68;;
33954;SDS011;20233;50.804;7.126;2022-08-01T07:41:20;11.00;;;5.72;;
33954;SDS011;20233;50.804;7.126;2022-08-01T07:43:46;10.07;;;6.15;;
33954;SDS011;20233;50.804;7.126;2022-08-01T07:46:13;7.35;;;5.40;;
33954;SDS011;20233;50.804;7.126;2022-08-01T07:48:40;7.32;;;5.25;;
33954;SDS011;20233;50.804;7.126;2022-08-01T07:51:06;8.35;;;5.57;;
33954;SDS011;20233;50.804;7.126;2022-08-01T07:53:33;8.40;;;5.47;;
33954;SDS011;20233;50.804;7.126;2022-08-01T07:55:59;7.80;;;4.68;;
33954;SDS011;20233;50.804;7.126;2022-08-01T07:58:25;7.53;;;5.65;;
33954;SDS011;20233;50.804;7.126;2022-08-01T08:00:50;8.93;;;5.70;;
33954;SDS011;20233;50.804;7.126;2022-08-01T08:03:16;6.60;;;5.18;;
33954;SDS011;20233;50.804;7.126;2022-08-01T08:05:41;7.97;;;5.82;;
33954;SDS011;20233;50.804;7.126;2022-08-01T08:08:07;11.45;;;5.75;;
33954;SDS011;20233;50.804;7.126;2022-08-01T08:10:35;9.23;;;5.85;;
33954;SDS011;20233;50.804;7.126;2022-08-01T08:13:01;8.35;;;5.72;;
33954;SDS011;20233;50.804;7.126;2022-08-01T08:15:27;9.18;;;6.32;;
33954;SDS011;20233;50.804;7.126;2022-08-01T08:17:53;9.65;;;6.20;;
33954;SDS011;20233;50.804;7.126;2022-08-01T08:20:19;9.57;;;5.68;;
33954;SDS011;20233;50.804;7.126;2022-08-01T08:22:49;8.60;;;5.93;;
33954;SDS011;20233;50.804;7.126;2022-08-01T08:25:15;8.35;;;6.15;;
33954;SDS011;20233;50.804;7.126;2022-08-01T08:27:41;9.00;;;6.10;;
33954;SDS011;20233;50.804;7.126;2022-08-01T08:30:07;7.88;;;6.00;;
33954;SDS011;20233;50.804;7.126;2022-08-01T08:32:34;7.88;;;6.68;;
33954;SDS011;20233;50.804;7.126;2022-08-01T08:35:00;7.50;;;6.22;;
33954;SDS011;20233;50.804;7.126;2022-08-01T08:37:26;7.50;;;5.70;;
33954;SDS011;20233;50.804;7.126;2022-08-01T08:39:52;11.35;;;6.47;;
33954;SDS011;20233;50.804;7.126;2022-08-01T08:42:17;9.60;;;6.15;;
33954;SDS011;20233;50.804;7.126;2022-08-01T08:44:43;11.80;;;6.22;;
33954;SDS011;20233;50.804;7.126;2022-08-01T08:47:10;7.88;;;6.95;;
33954;SDS011;20233;50.804;7.126;2022-08-01T08:49:37;9.02;;;6.32;;
33954;SDS011;20233;50.804;7.126;2022-08-01T08:52:03;8.27;;;6.85;;
33954;SDS011;20233;50.804;7.126;2022-08-01T08:54:30;12.05;;;7.00;;
33954;SDS011;20233;50.804;7.126;2022-08-01T08:56:57;8.18;;;7.38;;
33954;SDS011;20233;50.804;7.126;2022-08-01T08:59:24;8.00;;;7.18;;
33954;SDS011;20233;50.804;7.126;2022-08-01T09:01:50;8.90;;;7.03;;
33954;SDS011;20233;50.804;7.126;2022-08-01T09:04:16;7.72;;;6.68;;
33954;SDS011;20233;50.804;7.126;2022-08-01T09:06:42;9.00;;;7.20;;
33954;SDS011;20233;50.804;7.126;2022-08-01T09:09:08;8.68;;;7.10;;
33954;SDS011;20233;50.804;7.126;2022-08-01T09:11:35;8.68;;;6.47;;
33954;SDS011;20233;50.804;7.126;2022-08-01T09:14:14;8.07;;;6.82;;
33954;SDS011;20233;50.804;7.126;2022-08-01T09:16:58;15.82;;;7.15;;
33954;SDS011;20233;50.804;7.126;2022-08-01T09:19:39;12.48;;;6.30;;
33954;SDS011;20233;50.804;7.126;2022-08-01T09:22:11;11.70;;;7.28;;
33954;SDS011;20233;50.804;7.126;2022-08-01T09:24:38;9.50;;;6.90;;
33954;SDS011;20233;50.804;7.126;2022-08-01T09:27:16;8.40;;;6.80;;
33954;SDS011;20233;50.804;7.126;2022-08-01T09:29:43;10.82;;;7.45;;
33954;SDS011;20233;50.804;7.126;2022-08-01T09:32:09;7.45;;;6.57;;
33954;SDS011;20233;50.804;7.126;2022-08-01T09:34:35;7.82;;;7.03;;
33954;SDS011;20233;50.804;7.126;2022-08-01T09:37:02;8.63;;;6.68;;
33954;SDS011;20233;50.804;7.126;2022-08-01T09:39:31;10.98;;;7.38;;
33954;SDS011;20233;50.804;7.126;2022-08-01T09:42:02;8.48;;;6.43;;
33954;SDS011;20233;50.804;7.126;2022-08-01T09:44:47;7.07;;;5.70;;
33954;SDS011;20233;50.804;7.126;2022-08-01T09:47:13;8.73;;;6.20;;
33954;SDS011;20233;50.804;7.126;2022-08-01T09:49:42;5.05;;;4.50;;
33954;SDS011;20233;50.804;7.126;2022-08-01T09:59:43;9.10;;;5.93;;
33954;SDS011;20233;50.804;7.126;2022-08-01T10:02:12;5.82;;;5.10;;
33954;SDS011;20233;50.804;7.126;2022-08-01T10:04:47;4.85;;;4.32;;
33954;SDS011;20233;50.804;7.126;2022-08-01T10:07:14;7.85;;;5.88;;
33954;SDS011;20233;50.804;7.126;2022-08-01T10:09:40;5.43;;;4.88;;
33954;SDS011;20233;50.804;7.126;2022-08-01T10:12:07;7.25;;;4.65;;
33954;SDS011;20233;50.804;7.126;2022-08-01T10:14:34;7.78;;;4.72;;
33954;SDS011;20233;50.804;7.126;2022-08-01T10:17:02;5.50;;;3.75;;
33954;SDS011;20233;50.804;7.126;2022-08-01T10:19:31;4.50;;;3.97;;
33954;SDS011;20233;50.804;7.126;2022-08-01T10:21:59;6.93;;;4.43;;
33954;SDS011;20233;50.804;7.126;2022-08-01T10:24:27;3.83;;;3.38;;
33954;SDS011;20233;50.804;7.126;2022-08-01T10:26:56;9.07;;;4.22;;
33954;SDS011;20233;50.804;7.126;2022-08-01T10:29:29;13.73;;;4.13;;
33954;SDS011;20233;50.804;7.126;2022-08-01T10:32:00;13.15;;;3.28;;
33954;SDS011;20233;50.804;7.126;2022-08-01T10:34:27;7.47;;;3.50;;
33954;SDS011;20233;50.804;7.126;2022-08-01T10:36:54;5.82;;;2.80;;
33954;SDS011;20233;50.804;7.126;2022-08-01T10:39:20;5.30;;;2.60;;
33954;SDS011;20233;50.804;7.126;2022-08-01T10:41:46;5.88;;;3.33;;
33954;SDS011;20233;50.804;7.126;2022-08-01T10:44:13;4.88;;;3.60;;
33954;SDS011;20233;50.804;7.126;2022-08-01T10:46:39;3.50;;;2.50;;
33954;SDS011;20233;50.804;7.126;2022-08-01T10:49:12;5.38;;;2.72;;
33954;SDS011;20233;50.804;7.126;2022-08-01T10:51:40;6.05;;;3.17;;
33954;SDS011;20233;50.804;7.126;2022-08-01T10:54:07;6.10;;;2.95;;
33954;SDS011;20233;50.804;7.126;2022-08-01T10:56:48;4.95;;;3.10;;
33954;SDS011;20233;50.804;7.126;2022-08-01T11:01:55;2.88;;;2.33;;
33954;SDS011;20233;50.804;7.126;2022-08-01T11:05:12;4.40;;;3.08;;
33954;SDS011;20233;50.804;7.126;2022-08-01T11:07:23;3.28;;;2.95;;
33954;SDS011;20233;50.804;7.126;2022-08-01T11:10:03;4.03;;;2.60;;
33954;SDS011;20233;50.804;7.126;2022-08-01T11:12:38;2.72;;;2.13;;
33954;SDS011;20233;50.804;7.126;2022-08-01T11:20:09;4.20;;;3.08;;
33954;SDS011;20233;50.804;7.126;2022-08-01T11:28:23;3.60;;;2.10;;
33954;SDS011;20233;50.804;7.126;2022-08-01T11:31:31;2.72;;;1.85;;
33954;SDS011;20233;50.804;7.126;2022-08-01T11:38:42;3.45;;;2.33;;
33954;SDS011;20233;50.804;7.126;2022-08-01T11:41:25;3.42;;;2.58;;
33954;SDS011;20233;50.804;7.126;2022-08-01T11:46:50;4.32;;;3.13;;
33954;SDS011;20233;50.804;7.126;2022-08-01T11:52:03;5.15;;;3.30;;
33954;SDS011;20233;50.804;7.126;2022-08-01T11:54:46;6.35;;;2.75;;
33954;SDS011;20233;50.804;7.126;2022-08-01T11:57:20;4.20;;;3.08;;
33954;SDS011;20233;50.804;7.126;2022-08-01T11:59:50;2.95;;;2.33;;
33954;SDS011;20233;50.804;7.126;2022-08-01T12:02:24;4.15;;;2.40;;
33954;SDS011;20233;50.804;7.126;2022-08-01T12:04:56;5.68;;;2.70;;
33954;SDS011;20233;50.804;7.126;2022-08-01T12:07:27;3.58;;;2.50;;
33954;SDS011;20233;50.804;7.126;2022-08-01T12:09:58;5.57;;;2.08;;
33954;SDS011;20233;50.804;7.126;2022-08-01T12:12:25;9.75;;;2.30;;
33954;SDS011;20233;50.804;7.126;2022-08-01T12:14:52;4.88;;;2.20;;
33954;SDS011;20233;50.804;7.126;2022-08-01T12:17:20;7.53;;;3.30;;
33954;SDS011;20233;50.804;7.126;2022-08-01T12:20:07;3.63;;;2.30;;
33954;SDS011;20233;50.804;7.126;2022-08-01T12:22:35;3.03;;;2.10;;
33954;SDS011;20233;50.804;7.126;2022-08-01T12:25:05;5.47;;;2.20;;
33954;SDS011;20233;50.804;7.126;2022-08-01T12:27:32;3.08;;;2.38;;
33954;SDS011;20233;50.804;7.126;2022-08-01T12:29:58;4.35;;;2.60;;
33954;SDS011;20233;50.804;7.126;2022-08-01T12:34:56;16.40;;;2.47;;
33954;SDS011;20233;50.804;7.126;2022-08-01T12:37:26;9.43;;;1.95;;
33954;SDS011;20233;50.804;7.126;2022-08-01T12:39:52;3.83;;;1.48;;
33954;SDS011;20233;50.804;7.126;2022-08-01T12:42:17;4.72;;;1.50;;
33954;SDS011;20233;50.804;7.126;2022-08-01T12:44:44;3.17;;;1.70;;
33954;SDS011;20233;50.804;7.126;2022-08-01T12:47:12;3.58;;;2.03;;
33954;SDS011;20233;50.804;7.126;2022-08-01T12:49:38;3.50;;;1.85;;
33954;SDS011;20233;50.804;7.126;2022-08-01T12:52:06;2.90;;;2.22;;
33954;SDS011;20233;50.804;7.126;2022-08-01T12:54:59;4.25;;;1.67;;
33954;SDS011;20233;50.804;7.126;2022-08-01T12:57:28;3.65;;;1.52;;
33954;SDS011;20233;50.804;7.126;2022-08-01T13:03:06;9.30;;;1.33;;
33954;SDS011;20233;50.804;7.126;2022-08-01T13:11:04;2.63;;;1.30;;
33954;SDS011;20233;50.804;7.126;2022-08-01T13:13:37;13.23;;;1.77;;
33954;SDS011;20233;50.804;7.126;2022-08-01T13:16:04;13.13;;;2.20;;
33954;SDS011;20233;50.804;7.126;2022-08-01T13:18:31;4.53;;;1.50;;
33954;SDS011;20233;50.804;7.126;2022-08-01T13:21:07;3.42;;;1.80;;
33954;SDS011;20233;50.804;7.126;2022-08-01T13:23:35;2.97;;;1.73;;
33954;SDS011;20233;50.804;7.126;2022-08-01T13:26:01;3.33;;;1.70;;
33954;SDS011;20233;50.804;7.126;2022-08-01T13:28:27;3.08;;;1.98;;
33954;SDS011;20233;50.804;7.126;2022-08-01T13:33:28;4.03;;;1.95;;
33954;SDS011;20233;50.804;7.126;2022-08-01T13:36:06;3.17;;;2.08;;
33954;SDS011;20233;50.804;7.126;2022-08-01T13:38:33;3.80;;;1.95;;
33954;SDS011;20233;50.804;7.126;2022-08-01T13:41:17;4.25;;;1.77;;
33954;SDS011;20233;50.804;7.126;2022-08-01T13:43:42;3.33;;;1.70;;
33954;SDS011;20233;50.804;7.126;2022-08-01T13:46:08;5.88;;;1.63;;
33954;SDS011;20233;50.804;7.126;2022-08-01T13:48:33;2.35;;;1.58;;
33954;SDS011;20233;50.804;7.126;2022-08-01T13:50:59;4.03;;;1.92;;
33954;SDS011;20233;50.804;7.126;2022-08-01T13:53:25;3.35;;;1.80;;
33954;SDS011;20233;50.804;7.126;2022-08-01T13:55:51;2.60;;;1.73;;
33954;SDS011;20233;50.804;7.126;2022-08-01T13:58:16;2.75;;;1.90;;
33954;SDS011;20233;50.804;7.126;2022-08-01T14:00:42;2.70;;;1.40;;
33954;SDS011;20233;50.804;7.126;2022-08-01T14:03:08;5.15;;;2.10;;
33954;SDS011;20233;50.804;7.126;2022-08-01T14:05:35;3.92;;;1.70;;
33954;SDS011;20233;50.804;7.126;2022-08-01T14:08:01;4.65;;;1.60;;
33954;SDS011;20233;50.804;7.126;2022-08-01T14:10:27;4.28;;;1.40;;
33954;SDS011;20233;50.804;7.126;2022-08-01T14:12:54;6.68;;;1.55;;
33954;SDS011;20233;50.804;7.126;2022-08-01T14:15:21;2.40;;;1.20;;
33954;SDS011;20233;50.804;7.126;2022-08-01T14:17:47;2.90;;;0.73;;
33954;SDS011;20233;50.804;7.126;2022-08-01T14:20:12;3.22;;;1.42;;
33954;SDS011;20233;50.804;7.126;2022-08-01T14:22:38;2.08;;;0.80;;
33954;SDS011;20233;50.804;7.126;2022-08-01T14:25:05;4.03;;;1.13;;
33954;SDS011;20233;50.804;7.126;2022-08-01T14:27:31;4.40;;;1.00;;
33954;SDS011;20233;50.804;7.126;2022-08-01T14:30:00;2.20;;;0.93;;
33954;SDS011;20233;50.804;7.126;2022-08-01T14:32:27;3.10;;;0.95;;
33954;SDS011;20233;50.804;7.126;2022-08-01T14:34:53;2.65;;;1.10;;
33954;SDS011;20233;50.804;7.126;2022-08-01T14:37:18;2.88;;;0.73;;
33954;SDS011;20233;50.804;7.126;2022-08-01T14:39:44;2.25;;;1.10;;
33954;SDS011;20233;50.804;7.126;2022-08-01T14:42:10;1.85;;;0.95;;
33954;SDS011;20233;50.804;7.126;2022-08-01T14:44:35;3.53;;;0.70;;
33954;SDS011;20233;50.804;7.126;2022-08-01T14:47:01;2.03;;;0.88;;
33954;SDS011;20233;50.804;7.126;2022-08-01T14:49:26;2.40;;;0.93;;
33954;SDS011;20233;50.804;7.126;2022-08-01T14:51:52;2.55;;;0.63;;
33954;SDS011;20233;50.804;7.126;2022-08-01T14:54:18;3.40;;;0.57;;
33954;SDS011;20233;50.804;7.126;2022-08-01T14:56:44;2.35;;;0.50;;
33954;SDS011;20233;50.804;7.126;2022-08-01T14:59:09;1.88;;;0.90;;
33954;SDS011;20233;50.804;7.126;2022-08-01T15:01:35;4.20;;;0.40;;
33954;SDS011;20233;50.804;7.126;2022-08-01T15:04:00;1.33;;;0.52;;
33954;SDS011;20233;50.804;7.126;2022-08-01T15:06:26;2.88;;;0.60;;
33954;SDS011;20233;50.804;7.126;2022-08-01T15:08:52;1.63;;;0.40;;
33954;SDS011;20233;50.804;7.126;2022-08-01T15:11:17;1.60;;;0.60;;
33954;SDS011;20233;50.804;7.126;2022-08-01T15:13:43;1.20;;;0.50;;
33954;SDS011;20233;50.804;7.126;2022-08-01T15:16:09;2.40;;;0.47;;
33954;SDS011;20233;50.804;7.126;2022-08-01T15:18:34;3.53;;;0.40;;
33954;SDS011;20233;50.804;7.126;2022-08-01T15:21:00;3.05;;;0.70;;
33954;SDS011;20233;50.804;7.126;2022-08-01T15:23:26;2.25;;;0.52;;
33954;SDS011;20233;50.804;7.126;2022-08-01T15:25:51;1.30;;;0.43;;
33954;SDS011;20233;50.804;7.126;2022-08-01T15:28:17;1.80;;;0.30;;
33954;SDS011;20233;50.804;7.126;2022-08-01T15:30:44;1.23;;;0.30;;
33954;SDS011;20233;50.804;7.126;2022-08-01T15:33:10;3.90;;;0.47;;
33954;SDS011;20233;50.804;7.126;2022-08-01T15:35:35;3.42;;;0.63;;
33954;SDS011;20233;50.804;7.126;2022-08-01T15:38:01;1.75;;;0.40;;
33954;SDS011;20233;50.804;7.126;2022-08-01T15:40:27;1.05;;;0.50;;
33954;SDS011;20233;50.804;7.126;2022-08-01T15:42:53;3.72;;;0.70;;